Terminal Aerodrome Forecast
Issued by NWS

Home | Current Version | Previous Version | Text Only | Print | Product List | Glossary On
Versions: 1 2 3 4 5 6 7 8 9 10 11 12 13 14 15 16 17 18 19 20
000
FTUS43 KLSX 150530
TAFUIN
TAF
KUIN 150530Z 1506/1606 22005KT P6SM OVC035
     FM151000 27006KT P6SM -SN BKN070
     FM151700 28010G16KT P6SM SCT140
     FM152200 24010G17KT P6SM SCT250=

USA.gov is the U.S. government's official web portal to all federal, state and local government web resources and services.